Time;durP1;ratioP1;P1;durP2;ratioP2;P2;SDS_P1;SDS_P2;PMS_P1;PMS_P2;Temp;Humidity;BMP_temperature;BMP_pressure;BME280_temperature;BME280_humidity;BME280_pressure;Samples;Min_cycle;Max_cycle;Signal;HPM_P1;HPM_P2
2021/05/29 05:32:05;;;;;;;14.27;11.80;;;;;;;;;;4954587;28;20485;-95
2021/05/29 05:34:56;;;;;;;12.47;11.27;;;;;;;;;;4945733;29;20490;-96
2021/05/29 05:37:47;;;;;;;14.63;11.67;;;;;;;;;;4952350;29;20462;-92
2021/05/29 05:40:38;;;;;;;11.80;10.70;;;;;;;;;;4965936;29;20443;-93
2021/05/29 05:43:29;;;;;;;14.63;9.27;;;;;;;;;;4952454;29;20491;-96
2021/05/29 05:46:20;;;;;;;12.50;10.47;;;;;;;;;;4960727;28;20907;-93
2021/05/29 05:49:11;;;;;;;11.37;10.27;;;;;;;;;;4960728;29;20455;-90
2021/05/29 05:52:02;;;;;;;9.83;8.93;;;;;;;;;;4957971;29;20474;-96
2021/05/29 05:54:53;;;;;;;10.60;9.47;;;;;;;;;;4955915;29;20541;-94
2021/05/29 05:57:44;;;;;;;10.80;9.70;;;;;;;;;;4960402;29;20459;-92
2021/05/29 06:00:35;;;;;;;12.80;9.43;;;;;;;;;;4950514;29;20470;-92
2021/05/29 06:03:26;;;;;;;12.83;9.10;;;;;;;;;;4963541;29;20466;-92
2021/05/29 06:06:18;;;;;;;9.30;8.50;;;;;;;;;;4945438;29;20459;-91
2021/05/29 06:09:09;;;;;;;9.37;8.47;;;;;;;;;;4959136;29;20463;-96
2021/05/29 06:12:01;;;;;;;9.47;8.27;;;;;;;;;;4955083;29;20459;-95
2021/05/29 06:20:21;;;;;;;10.00;8.90;;;;;;;;;;4959792;28;20553;-96
2021/05/29 06:22:47;;;;;;;8.30;7.50;;;;;;;;;;4947956;29;20455;-96
2021/05/29 06:25:14;;;;;;;9.13;7.83;;;;;;;;;;4962543;29;20531;-95
2021/05/29 06:27:40;;;;;;;9.27;8.00;;;;;;;;;;4956365;29;20463;-96
2021/05/29 06:30:12;;;;;;;6.50;5.40;;;;;;;;;;4957419;28;20474;-96
2021/05/29 06:32:40;;;;;;;6.20;5.70;;;;;;;;;;5167053;23;20494;-96
2021/05/29 06:35:28;;;;;;;5.87;5.37;;;;;;;;;;5022089;28;20499;-95
2021/05/29 06:37:56;;;;;;;6.27;5.67;;;;;;;;;;5014885;28;20451;-95
2021/05/29 06:40:23;;;;;;;5.93;5.43;;;;;;;;;;5015485;28;20452;-96
2021/05/29 06:42:50;;;;;;;10.83;5.90;;;;;;;;;;5029060;28;20963;-94
2021/05/29 06:45:17;;;;;;;6.53;5.83;;;;;;;;;;5013079;28;20455;-95
2021/05/29 06:47:49;;;;;;;5.10;4.70;;;;;;;;;;5011526;28;20529;-96
2021/05/29 06:50:20;;;;;;;6.00;5.50;;;;;;;;;;5067053;23;20496;-96
2021/05/29 06:52:50;;;;;;;7.03;5.73;;;;;;;;;;5017294;28;20451;-96
2021/05/29 07:01:28;;;;;;;6.53;5.90;;;;;;;;;;4992188;28;20457;-96
2021/05/29 07:03:58;;;;;;;7.07;6.40;;;;;;;;;;5016040;28;20461;-96
2021/05/29 07:06:25;;;;;;;9.00;5.70;;;;;;;;;;5020330;28;20428;-96
2021/05/29 07:08:58;;;;;;;8.03;6.07;;;;;;;;;;5021746;28;20472;-94
2021/05/29 07:11:27;;;;;;;5.93;5.37;;;;;;;;;;5010968;28;20444;-93
2021/05/29 07:13:53;;;;;;;6.20;5.60;;;;;;;;;;5022821;28;20456;-96
2021/05/29 07:16:21;;;;;;;6.20;5.70;;;;;;;;;;5027404;23;20496;-96
2021/05/29 07:18:53;;;;;;;6.70;5.70;;;;;;;;;;5015977;28;20493;-96
2021/05/29 07:21:30;;;;;;;6.27;5.77;;;;;;;;;;5007959;28;20487;-96
2021/05/29 07:26:37;;;;;;;4.63;4.23;;;;;;;;;;5003223;28;20448;-93
2021/05/29 07:40:40;;;;;;;5.67;5.17;;;;;;;;;;5024954;28;20437;-95
2021/05/29 07:43:07;;;;;;;4.87;3.40;;;;;;;;;;5222113;23;20517;-95
2021/05/29 07:45:39;;;;;;;4.50;4.07;;;;;;;;;;5032264;28;20478;-96
2021/05/29 07:48:05;;;;;;;4.40;4.00;;;;;;;;;;5028082;28;20436;-96
2021/05/29 07:53:17;;;;;;;3.97;3.50;;;;;;;;;;5024869;23;20511;-96
2021/05/29 08:03:44;;;;;;;4.37;3.80;;;;;;;;;;5018302;28;20445;-96
2021/05/29 08:06:17;;;;;;;4.43;4.03;;;;;;;;;;5035080;28;20460;-96
2021/05/29 08:08:52;;;;;;;4.43;3.97;;;;;;;;;;5024876;28;20443;-95
2021/05/29 08:14:07;;;;;;;8.20;3.73;;;;;;;;;;5074828;23;20321;-96
2021/05/29 08:19:41;;;;;;;4.17;3.70;;;;;;;;;;5011640;28;20446;-95
2021/05/29 08:22:31;;;;;;;3.93;3.63;;;;;;;;;;5020855;28;20455;-96
2021/05/29 08:25:06;;;;;;;4.33;3.50;;;;;;;;;;5008416;28;20449;-96
2021/05/29 08:30:43;;;;;;;5.60;3.40;;;;;;;;;;5157322;23;20508;-96
2021/05/29 08:33:17;;;;;;;5.70;3.90;;;;;;;;;;5021022;23;20569;-96
2021/05/29 08:35:43;;;;;;;4.20;3.77;;;;;;;;;;5021155;28;20487;-95
2021/05/29 08:38:11;;;;;;;4.03;3.70;;;;;;;;;;5046003;28;20465;-95
2021/05/29 08:40:54;;;;;;;3.77;3.47;;;;;;;;;;5039931;28;20466;-96
2021/05/29 08:43:25;;;;;;;3.73;3.37;;;;;;;;;;4991240;28;20459;-96
2021/05/29 08:46:00;;;;;;;3.77;3.47;;;;;;;;;;5019078;28;20479;-96
2021/05/29 08:51:17;;;;;;;3.97;3.43;;;;;;;;;;5154886;23;20594;-96
2021/05/29 08:53:44;;;;;;;3.60;3.30;;;;;;;;;;5022540;28;20460;-95
2021/05/29 08:56:16;;;;;;;4.10;3.80;;;;;;;;;;5008580;28;20505;-96
2021/05/29 08:58:47;;;;;;;4.07;3.77;;;;;;;;;;5003597;28;21009;-96
2021/05/29 09:01:44;;;;;;;6.00;3.90;;;;;;;;;;4999709;28;20449;-95
2021/05/29 09:07:30;;;;;;;3.40;3.20;;;;;;;;;;4971516;28;20492;-95
2021/05/29 09:12:55;;;;;;;3.77;3.47;;;;;;;;;;5003937;28;20487;-94
2021/05/29 09:15:21;;;;;;;3.90;3.60;;;;;;;;;;5066738;23;20531;-96
2021/05/29 09:17:48;;;;;;;5.27;3.20;;;;;;;;;;5014829;28;20436;-96
2021/05/29 09:20:21;;;;;;;3.40;3.20;;;;;;;;;;5029386;28;20440;-96
2021/05/29 09:23:00;;;;;;;3.93;3.53;;;;;;;;;;5003715;28;20440;-96
2021/05/29 09:25:27;;;;;;;4.10;3.80;;;;;;;;;;5060516;23;20821;-94
2021/05/29 09:27:55;;;;;;;4.17;3.50;;;;;;;;;;5005720;28;20439;-96
2021/05/29 09:30:37;;;;;;;3.50;3.30;;;;;;;;;;5009803;28;20493;-95
2021/05/29 09:33:18;;;;;;;4.00;3.67;;;;;;;;;;4998302;28;20458;-96
2021/05/29 09:38:15;;;;;;;3.70;3.40;;;;;;;;;;5014912;28;20466;-95
2021/05/29 09:43:57;;;;;;;3.80;3.60;;;;;;;;;;5038119;23;20490;-96
2021/05/29 09:46:51;;;;;;;3.60;3.40;;;;;;;;;;5023508;28;20453;-96
2021/05/29 09:51:52;;;;;;;3.30;3.10;;;;;;;;;;5090612;23;20489;-96
2021/05/29 09:54:35;;;;;;;3.13;2.93;;;;;;;;;;5014593;28;20476;-96
2021/05/29 09:59:59;;;;;;;3.50;3.00;;;;;;;;;;5062008;23;20491;-96
2021/05/29 10:02:54;;;;;;;3.90;3.60;;;;;;;;;;5012261;28;20507;-96
2021/05/29 10:10:54;;;;;;;4.23;3.87;;;;;;;;;;5021150;28;20496;-96
2021/05/29 10:13:20;;;;;;;3.40;3.10;;;;;;;;;;5035389;28;20445;-96
2021/05/29 10:15:46;;;;;;;3.57;3.30;;;;;;;;;;5043238;28;20930;-94
2021/05/29 10:18:16;;;;;;;3.40;3.20;;;;;;;;;;5052268;28;20449;-96
2021/05/29 10:20:44;;;;;;;4.00;3.20;;;;;;;;;;5037908;23;20444;-96
2021/05/29 10:23:11;;;;;;;3.40;3.20;;;;;;;;;;5011743;28;20492;-95
2021/05/29 10:25:39;;;;;;;3.00;2.80;;;;;;;;;;5021947;28;20447;-94
2021/05/29 10:28:10;;;;;;;3.30;3.10;;;;;;;;;;5009037;28;20457;-92
2021/05/29 10:30:37;;;;;;;3.37;3.00;;;;;;;;;;5013708;28;20456;-95
2021/05/29 10:33:15;;;;;;;5.20;2.90;;;;;;;;;;5010204;28;20424;-93
2021/05/29 10:35:42;;;;;;;3.03;2.83;;;;;;;;;;5002552;28;20479;-92
2021/05/29 10:38:09;;;;;;;3.13;2.90;;;;;;;;;;5016142;28;20458;-95
2021/05/29 10:40:38;;;;;;;3.03;2.73;;;;;;;;;;5005623;28;20453;-96
2021/05/29 10:43:22;;;;;;;3.30;3.00;;;;;;;;;;5023173;28;20517;-93
2021/05/29 10:46:05;;;;;;;3.20;2.70;;;;;;;;;;5020793;28;20465;-95
2021/05/29 10:48:48;;;;;;;6.13;2.83;;;;;;;;;;5010498;28;20471;-94
2021/05/29 10:51:22;;;;;;;3.40;3.10;;;;;;;;;;5018821;28;20474;-96
2021/05/29 10:53:49;;;;;;;2.70;2.50;;;;;;;;;;5030472;28;20446;-94
2021/05/29 10:56:32;;;;;;;3.00;2.80;;;;;;;;;;5015295;28;20517;-96
2021/05/29 10:59:17;;;;;;;3.50;3.20;;;;;;;;;;5026503;28;20482;-96
2021/05/29 11:02:17;;;;;;;2.80;2.60;;;;;;;;;;5014905;28;20454;-94
2021/05/29 11:04:43;;;;;;;4.40;2.97;;;;;;;;;;5014388;28;20467;-96
2021/05/29 11:07:25;;;;;;;3.03;2.83;;;;;;;;;;5005657;28;20468;-95
2021/05/29 11:09:54;;;;;;;3.93;2.70;;;;;;;;;;5012546;28;20495;-94
2021/05/29 11:12:20;;;;;;;4.87;2.70;;;;;;;;;;5009338;28;20447;-95
2021/05/29 11:15:15;;;;;;;2.60;2.50;;;;;;;;;;5035929;23;20488;-94
2021/05/29 11:18:04;;;;;;;5.10;2.57;;;;;;;;;;4999340;28;20464;-94
2021/05/29 11:20:56;;;;;;;2.80;2.60;;;;;;;;;;5002558;28;20491;-94
2021/05/29 11:23:27;;;;;;;3.20;2.80;;;;;;;;;;4990751;28;20448;-91
2021/05/29 11:25:55;;;;;;;2.47;2.27;;;;;;;;;;4999749;28;20432;-96
2021/05/29 11:28:33;;;;;;;7.90;2.63;;;;;;;;;;5007764;28;20481;-95
2021/05/29 11:30:59;;;;;;;2.70;2.60;;;;;;;;;;5008303;28;20452;-94
2021/05/29 11:33:27;;;;;;;2.30;2.20;;;;;;;;;;5008174;28;20460;-96
2021/05/29 11:35:53;;;;;;;3.83;2.67;;;;;;;;;;5010070;28;20472;-96
2021/05/29 11:38:23;;;;;;;2.50;2.40;;;;;;;;;;5010545;28;20441;-96
2021/05/29 11:40:51;;;;;;;2.83;2.73;;;;;;;;;;5011993;28;20452;-95
2021/05/29 11:43:19;;;;;;;2.87;2.57;;;;;;;;;;5007161;28;20460;-94
2021/05/29 11:45:45;;;;;;;2.43;2.33;;;;;;;;;;5000009;28;20536;-96
2021/05/29 11:48:12;;;;;;;2.47;2.30;;;;;;;;;;5008104;28;20460;-94
2021/05/29 11:50:40;;;;;;;3.53;2.70;;;;;;;;;;4990546;28;20461;-93
2021/05/29 11:53:24;;;;;;;4.60;2.40;;;;;;;;;;5006361;28;20443;-96
2021/05/29 11:55:55;;;;;;;2.60;2.50;;;;;;;;;;5040141;23;20485;-96
2021/05/29 11:58:24;;;;;;;2.80;2.60;;;;;;;;;;4996665;28;20464;-94
2021/05/29 12:01:00;;;;;;;3.40;2.43;;;;;;;;;;5008783;28;20461;-95
2021/05/29 12:03:39;;;;;;;3.00;2.80;;;;;;;;;;4983748;28;20472;-93
2021/05/29 12:06:06;;;;;;;2.80;2.53;;;;;;;;;;4997163;28;20473;-92
2021/05/29 12:08:32;;;;;;;2.60;2.40;;;;;;;;;;4995517;28;20440;-96
2021/05/29 12:10:58;;;;;;;2.50;2.23;;;;;;;;;;5005736;28;20472;-92
2021/05/29 12:13:25;;;;;;;3.50;2.87;;;;;;;;;;4988083;28;20477;-96
2021/05/29 12:15:55;;;;;;;2.67;2.50;;;;;;;;;;4993221;28;20504;-96
2021/05/29 12:18:22;;;;;;;2.83;2.63;;;;;;;;;;4993014;28;20458;-94
2021/05/29 12:20:56;;;;;;;4.83;2.67;;;;;;;;;;5006654;28;20475;-91
2021/05/29 12:23:22;;;;;;;3.60;2.93;;;;;;;;;;4986632;28;20464;-94
2021/05/29 12:25:55;;;;;;;2.63;2.53;;;;;;;;;;5115476;23;20488;-96
2021/05/29 12:28:23;;;;;;;3.03;2.83;;;;;;;;;;5022206;23;20510;-96
2021/05/29 12:30:53;;;;;;;3.60;2.40;;;;;;;;;;5008254;28;20457;-95
2021/05/29 12:33:22;;;;;;;2.50;2.40;;;;;;;;;;5103589;23;20506;-94
2021/05/29 12:36:03;;;;;;;3.77;2.80;;;;;;;;;;5012537;23;20458;-96
2021/05/29 12:38:31;;;;;;;4.60;2.53;;;;;;;;;;5013938;28;20452;-93
2021/05/29 12:40:57;;;;;;;2.77;2.57;;;;;;;;;;5027402;28;20431;-95
2021/05/29 12:43:27;;;;;;;3.23;2.93;;;;;;;;;;5125770;23;20474;-96
2021/05/29 12:45:53;;;;;;;2.50;2.33;;;;;;;;;;5186305;23;20487;-94
2021/05/29 12:48:21;;;;;;;3.90;2.60;;;;;;;;;;5034973;23;20496;-96
2021/05/29 12:51:12;;;;;;;4.60;2.70;;;;;;;;;;5008491;28;20512;-96
2021/05/29 12:53:49;;;;;;;2.63;2.43;;;;;;;;;;4990235;28;20456;-94
2021/05/29 12:56:35;;;;;;;3.33;3.00;;;;;;;;;;5007755;28;20495;-96
2021/05/29 12:59:04;;;;;;;2.40;2.30;;;;;;;;;;5006586;28;20504;-96
2021/05/29 13:01:54;;;;;;;2.70;2.50;;;;;;;;;;5004322;28;20456;-95
2021/05/29 13:09:54;;;;;;;2.50;2.30;;;;;;;;;;5007216;28;20448;-94
2021/05/29 13:12:20;;;;;;;2.70;2.50;;;;;;;;;;5002078;28;20456;-91
2021/05/29 13:14:47;;;;;;;2.50;2.40;;;;;;;;;;5006542;28;20547;-94
2021/05/29 13:17:33;;;;;;;2.40;2.30;;;;;;;;;;5004267;28;20452;-96
2021/05/29 13:22:30;;;;;;;2.70;2.50;;;;;;;;;;5031503;28;20467;-93
2021/05/29 13:24:58;;;;;;;2.73;2.50;;;;;;;;;;5047550;28;20520;-93
2021/05/29 13:27:35;;;;;;;2.93;2.60;;;;;;;;;;5024566;28;20457;-96
2021/05/29 13:30:07;;;;;;;2.53;2.40;;;;;;;;;;5038066;28;20455;-95
2021/05/29 13:32:41;;;;;;;2.90;2.63;;;;;;;;;;5036089;28;20447;-95
2021/05/29 13:35:11;;;;;;;2.70;2.57;;;;;;;;;;5027846;28;20566;-93
2021/05/29 13:37:38;;;;;;;2.53;2.20;;;;;;;;;;5032717;28;20466;-95
2021/05/29 13:40:07;;;;;;;2.40;2.30;;;;;;;;;;5037682;28;20513;-96
2021/05/29 13:42:33;;;;;;;2.60;2.50;;;;;;;;;;5020746;28;20475;-93
2021/05/29 13:44:59;;;;;;;2.77;2.57;;;;;;;;;;5027460;28;20561;-94
2021/05/29 13:47:25;;;;;;;2.40;2.30;;;;;;;;;;5030837;28;20456;-94
2021/05/29 13:49:51;;;;;;;2.23;2.13;;;;;;;;;;5025126;28;20448;-93
2021/05/29 13:52:17;;;;;;;2.10;2.00;;;;;;;;;;5023400;28;20448;-95
2021/05/29 13:57:47;;;;;;;2.63;2.43;;;;;;;;;;5029146;28;20427;-95
2021/05/29 14:00:15;;;;;;;2.10;2.00;;;;;;;;;;5044989;28;20947;-92
2021/05/29 14:02:41;;;;;;;2.50;2.30;;;;;;;;;;5046849;28;20480;-94
2021/05/29 14:05:24;;;;;;;3.83;2.40;;;;;;;;;;5011291;28;20460;-96
2021/05/29 14:10:44;;;;;;;3.50;2.23;;;;;;;;;;5014623;28;20477;-93
2021/05/29 14:13:13;;;;;;;2.40;2.27;;;;;;;;;;5009343;23;20501;-92
2021/05/29 14:15:39;;;;;;;2.40;2.20;;;;;;;;;;4974863;28;20578;-93
2021/05/29 14:18:06;;;;;;;2.53;2.43;;;;;;;;;;4977128;28;20462;-93
2021/05/29 14:20:32;;;;;;;3.97;2.40;;;;;;;;;;4981883;28;20430;-94
2021/05/29 14:22:58;;;;;;;2.40;2.20;;;;;;;;;;4979319;28;20512;-95
2021/05/29 14:25:29;;;;;;;2.80;2.60;;;;;;;;;;4986325;28;20461;-96
2021/05/29 14:27:55;;;;;;;2.40;2.30;;;;;;;;;;4982306;28;20485;-90
2021/05/29 14:30:23;;;;;;;2.97;2.70;;;;;;;;;;4974708;28;20458;-94
2021/05/29 14:32:49;;;;;;;4.10;2.47;;;;;;;;;;4988632;28;20463;-93
2021/05/29 14:35:16;;;;;;;2.77;2.57;;;;;;;;;;4983942;28;20583;-92
2021/05/29 14:37:41;;;;;;;2.70;2.50;;;;;;;;;;5000990;28;20457;-95
2021/05/29 14:40:08;;;;;;;2.20;2.10;;;;;;;;;;4991216;28;20874;-95
2021/05/29 14:42:35;;;;;;;4.23;2.70;;;;;;;;;;4999829;28;20432;-94
2021/05/29 14:45:01;;;;;;;2.30;2.10;;;;;;;;;;4994033;28;20441;-94
2021/05/29 14:47:31;;;;;;;2.97;2.17;;;;;;;;;;5002875;28;20491;-94
2021/05/29 14:50:00;;;;;;;2.27;2.17;;;;;;;;;;4990884;28;20524;-95
2021/05/29 14:52:27;;;;;;;3.00;2.80;;;;;;;;;;5005010;28;20457;-92
2021/05/29 14:54:53;;;;;;;2.23;2.13;;;;;;;;;;4991007;28;20496;-93
2021/05/29 14:57:22;;;;;;;2.90;2.63;;;;;;;;;;4980876;28;20454;-92
2021/05/29 14:59:48;;;;;;;2.50;2.30;;;;;;;;;;4978065;28;20464;-94
2021/05/29 15:02:14;;;;;;;2.57;2.47;;;;;;;;;;4982255;28;20520;-93
2021/05/29 15:04:50;;;;;;;2.80;2.30;;;;;;;;;;5004267;28;20436;-96
2021/05/29 15:07:16;;;;;;;2.67;2.47;;;;;;;;;;4976245;28;20460;-94
2021/05/29 15:09:42;;;;;;;2.13;2.03;;;;;;;;;;5012567;28;20456;-95
2021/05/29 15:12:09;;;;;;;2.43;2.30;;;;;;;;;;4987037;28;20485;-92
2021/05/29 15:14:36;;;;;;;4.43;2.10;;;;;;;;;;5054696;23;20496;-95
2021/05/29 15:17:06;;;;;;;2.00;1.90;;;;;;;;;;5013489;28;20456;-96
2021/05/29 15:19:32;;;;;;;3.30;2.60;;;;;;;;;;5010654;28;21393;-94
2021/05/29 15:22:02;;;;;;;2.50;2.37;;;;;;;;;;5004098;28;20465;-95
2021/05/29 15:24:29;;;;;;;2.57;2.37;;;;;;;;;;5022708;28;20492;-93
2021/05/29 15:27:03;;;;;;;2.57;2.37;;;;;;;;;;5019521;28;20457;-91
2021/05/29 15:29:29;;;;;;;4.57;2.80;;;;;;;;;;5026674;28;20443;-92
2021/05/29 15:31:55;;;;;;;2.23;2.13;;;;;;;;;;5022150;28;20449;-90
2021/05/29 15:34:22;;;;;;;2.77;2.53;;;;;;;;;;5025721;28;20444;-92
2021/05/29 15:36:49;;;;;;;3.40;2.23;;;;;;;;;;5016189;28;20504;-93
2021/05/29 15:39:16;;;;;;;3.57;2.93;;;;;;;;;;5024631;28;20447;-94
2021/05/29 15:41:46;;;;;;;2.70;2.50;;;;;;;;;;5021524;28;20471;-94
2021/05/29 15:44:12;;;;;;;2.40;2.30;;;;;;;;;;5006346;28;20613;-93
2021/05/29 15:47:00;;;;;;;2.43;2.23;;;;;;;;;;5005691;28;20448;-95
2021/05/29 15:49:31;;;;;;;5.70;2.93;;;;;;;;;;5009149;28;20943;-94
2021/05/29 15:51:57;;;;;;;2.90;2.63;;;;;;;;;;5025284;28;20432;-93
2021/05/29 15:54:41;;;;;;;2.80;2.60;;;;;;;;;;5013170;28;20425;-96
2021/05/29 16:00:08;;;;;;;5.67;2.90;;;;;;;;;;5473046;23;20466;-96
2021/05/29 16:02:39;;;;;;;4.00;2.80;;;;;;;;;;5006186;28;20471;-96
2021/05/29 16:05:06;;;;;;;3.17;2.87;;;;;;;;;;4993594;28;20452;-93
2021/05/29 16:07:34;;;;;;;3.53;2.80;;;;;;;;;;5185695;23;20538;-96
2021/05/29 16:10:00;;;;;;;4.60;3.30;;;;;;;;;;5027659;23;20481;-96
2021/05/29 16:12:26;;;;;;;3.40;2.97;;;;;;;;;;5030081;28;20487;-95
2021/05/29 16:14:54;;;;;;;3.37;2.90;;;;;;;;;;5015536;28;20459;-95
2021/05/29 16:20:23;;;;;;;4.00;3.60;;;;;;;;;;5020070;28;20467;-96
2021/05/29 16:22:49;;;;;;;4.33;3.77;;;;;;;;;;5013380;28;21183;-95
2021/05/29 16:25:15;;;;;;;5.00;4.50;;;;;;;;;;5024837;28;20470;-96
2021/05/29 16:27:45;;;;;;;3.87;3.57;;;;;;;;;;5030142;28;20465;-96
2021/05/29 16:30:34;;;;;;;5.33;3.70;;;;;;;;;;5023622;28;20471;-96
2021/05/29 16:36:03;;;;;;;3.20;3.00;;;;;;;;;;5078489;23;20492;-95
2021/05/29 16:38:58;;;;;;;4.57;3.00;;;;;;;;;;5037462;28;20463;-96
2021/05/29 16:42:18;;;;;;;4.97;3.23;;;;;;;;;;5018487;28;20428;-95
2021/05/29 16:47:19;;;;;;;4.37;3.60;;;;;;;;;;4995744;28;20270;-94
2021/05/29 16:52:35;;;;;;;9.73;4.00;;;;;;;;;;4412926;23;20511;-96
2021/05/29 16:55:07;;;;;;;4.53;3.70;;;;;;;;;;5088152;23;20562;-95
2021/05/29 16:57:37;;;;;;;7.10;4.13;;;;;;;;;;5025883;28;20452;-92
2021/05/29 17:00:46;;;;;;;4.00;3.70;;;;;;;;;;5043930;23;20481;-96
2021/05/29 17:03:17;;;;;;;6.83;3.27;;;;;;;;;;5029810;23;20514;-96
2021/05/29 17:06:20;;;;;;;4.03;3.63;;;;;;;;;;5044437;23;20471;-96
2021/05/29 17:11:13;;;;;;;7.30;3.73;;;;;;;;;;5163158;23;20604;-96
2021/05/29 17:13:50;;;;;;;4.63;3.70;;;;;;;;;;5027007;28;20477;-96
2021/05/29 17:22:32;;;;;;;5.10;3.57;;;;;;;;;;5025804;28;20993;-95
2021/05/29 17:38:44;;;;;;;6.17;4.10;;;;;;;;;;3900332;23;20477;-96
2021/05/29 17:41:27;;;;;;;7.67;3.90;;;;;;;;;;5016608;28;20458;-96
2021/05/29 17:49:27;;;;;;;4.20;3.90;;;;;;;;;;5015567;28;20462;-95
2021/05/29 17:54:59;;;;;;;5.80;4.07;;;;;;;;;;5319167;23;20493;-95
2021/05/29 18:00:22;;;;;;;4.60;4.13;;;;;;;;;;735484;26;20753;-96
2021/05/29 18:02:59;;;;;;;4.20;3.90;;;;;;;;;;5000590;28;20446;-96
2021/05/29 19:43:52;;;;;;;8.20;7.53;;;;;;;;;;4950604;28;20482;-96
2021/05/29 20:13:29;;;;;;;8.70;7.90;;;;;;;;;;5245171;23;20499;-95
2021/05/29 20:27:09;;;;;;;8.70;8.00;;;;;;;;;;4923902;29;20479;-96
2021/05/29 20:43:54;;;;;;;9.30;8.40;;;;;;;;;;5621216;23;20487;-96
2021/05/29 20:46:25;;;;;;;8.80;8.10;;;;;;;;;;5245075;23;20540;-96
2021/05/29 20:51:30;;;;;;;9.73;8.83;;;;;;;;;;5204527;23;20454;-94
2021/05/29 21:08:12;;;;;;;9.20;8.40;;;;;;;;;;5435560;23;20565;-96
2021/05/29 21:10:41;;;;;;;9.03;8.23;;;;;;;;;;4975625;28;20461;-96
2021/05/29 21:27:17;;;;;;;10.07;8.97;;;;;;;;;;5255860;23;20556;-96
2021/05/29 21:32:30;;;;;;;9.70;8.70;;;;;;;;;;4952021;28;20499;-96
2021/05/29 21:35:12;;;;;;;9.80;8.87;;;;;;;;;;4946844;29;20451;-96
2021/05/29 21:51:32;;;;;;;11.50;8.83;;;;;;;;;;4993591;23;20488;-96
2021/05/29 21:53:58;;;;;;;8.83;8.03;;;;;;;;;;4930912;29;20451;-96
2021/05/29 22:12:58;;;;;;;9.37;8.60;;;;;;;;;;4975558;28;20435;-96
2021/05/29 22:32:01;;;;;;;10.30;9.40;;;;;;;;;;4968988;23;20478;-96
2021/05/29 22:34:29;;;;;;;9.90;8.90;;;;;;;;;;4957974;28;20506;-96
2021/05/29 22:48:04;;;;;;;10.23;9.23;;;;;;;;;;4937679;23;20486;-96
2021/05/29 22:50:38;;;;;;;10.20;9.20;;;;;;;;;;4936184;29;20452;-96
2021/05/29 22:53:10;;;;;;;9.97;9.00;;;;;;;;;;4939090;29;20456;-96
2021/05/29 22:55:44;;;;;;;13.50;10.20;;;;;;;;;;4962906;23;20492;-95
2021/05/29 22:58:10;;;;;;;11.00;9.70;;;;;;;;;;4928968;29;20463;-96
2021/05/29 23:03:46;;;;;;;11.17;10.17;;;;;;;;;;4954143;29;20514;-96
2021/05/29 23:06:19;;;;;;;11.33;10.00;;;;;;;;;;4913201;29;20464;-96
2021/05/29 23:17:20;;;;;;;12.33;9.27;;;;;;;;;;5688627;23;20478;-96
2021/05/29 23:19:46;;;;;;;10.73;9.73;;;;;;;;;;4898078;29;20465;-96
2021/05/29 23:25:07;;;;;;;10.17;9.17;;;;;;;;;;5719199;23;20513;-95
2021/05/29 23:27:33;;;;;;;10.40;9.50;;;;;;;;;;4961866;23;20494;-96
2021/05/29 23:32:41;;;;;;;10.37;9.30;;;;;;;;;;4949046;23;20502;-96
2021/05/29 23:35:08;;;;;;;9.30;8.40;;;;;;;;;;4966394;29;20482;-96
2021/05/29 23:37:34;;;;;;;10.37;9.37;;;;;;;;;;4962151;29;20499;-96
2021/05/29 23:40:00;;;;;;;10.20;9.30;;;;;;;;;;4946817;29;20462;-94
2021/05/29 23:42:31;;;;;;;10.40;9.47;;;;;;;;;;4959441;29;20444;-96
2021/05/29 23:44:57;;;;;;;9.73;8.83;;;;;;;;;;4966893;28;20513;-96
2021/05/29 23:47:24;;;;;;;9.63;8.67;;;;;;;;;;4975224;29;20511;-95
2021/05/29 23:49:51;;;;;;;10.47;9.53;;;;;;;;;;4967211;28;20469;-96
